createdAt,value
2023-02-20T00:01:32.878Z,0.16
2023-02-20T00:03:12.625Z,0.17
2023-02-20T00:04:52.394Z,0.17
2023-02-20T00:06:32.151Z,0.16
2023-02-20T00:08:11.920Z,0.18
2023-02-20T00:09:51.694Z,0.16
2023-02-20T00:11:31.462Z,0.18
2023-02-20T00:13:11.237Z,0.18
2023-02-20T00:14:50.989Z,0.19
2023-02-20T00:16:30.770Z,0.17
2023-02-20T00:18:10.532Z,0.19
2023-02-20T00:19:50.305Z,0.16
2023-02-20T00:21:30.063Z,0.19
2023-02-20T00:23:09.826Z,0.17
2023-02-20T00:24:49.587Z,0.17
2023-02-20T00:26:29.371Z,0.18
2023-02-20T00:28:09.128Z,0.18
2023-02-20T00:29:48.907Z,0.18
2023-02-20T00:31:28.675Z,0.15
2023-02-20T00:33:08.430Z,0.18
2023-02-20T00:34:48.193Z,0.16
2023-02-20T00:36:27.970Z,0.16
2023-02-20T00:38:07.744Z,0.17
2023-02-20T00:39:47.506Z,0.16
2023-02-20T00:41:27.285Z,0.15
2023-02-20T00:43:07.055Z,0.15
2023-02-20T00:44:46.816Z,0.16
2023-02-20T00:46:26.579Z,0.16
2023-02-20T00:48:06.356Z,0.16
2023-02-20T00:49:46.123Z,0.17
2023-02-20T00:51:25.878Z,0.15
2023-02-20T00:53:05.655Z,0.16
2023-02-20T00:54:45.418Z,0.17
2023-02-20T00:56:25.175Z,0.16
2023-02-20T00:58:04.946Z,0.18
2023-02-20T00:59:44.717Z,0.15
2023-02-20T01:01:24.472Z,0.19
2023-02-20T01:03:04.243Z,0.18
2023-02-20T01:04:44.042Z,0.16
2023-02-20T01:06:23.784Z,0.19
2023-02-20T01:08:03.570Z,0.16
2023-02-20T01:09:43.346Z,0.17
2023-02-20T01:11:23.086Z,0.17
2023-02-20T01:13:02.841Z,0.17
2023-02-20T01:14:42.667Z,0.17
2023-02-20T01:16:22.384Z,0.19
2023-02-20T01:18:02.222Z,0.19
2023-02-20T01:19:41.925Z,0.18
2023-02-20T01:21:21.688Z,0.19
2023-02-20T01:23:01.453Z,0.16
2023-02-20T01:24:41.214Z,0.16
2023-02-20T01:26:21.092Z,0.16
2023-02-20T01:28:00.756Z,0.17
2023-02-20T01:29:40.525Z,0.16
2023-02-20T01:31:20.291Z,0.19
2023-02-20T01:33:00.072Z,0.19
2023-02-20T01:34:39.824Z,0.17
2023-02-20T01:36:19.583Z,0.21
2023-02-20T01:37:59.360Z,0.19
2023-02-20T01:39:39.134Z,0.21
2023-02-20T01:41:18.891Z,0.17
2023-02-20T01:42:58.664Z,0.17
2023-02-20T01:44:38.433Z,0.18
2023-02-20T01:46:18.201Z,0.17
2023-02-20T01:47:57.973Z,0.21
2023-02-20T01:49:37.749Z,0.18
2023-02-20T01:51:17.510Z,0.17
2023-02-20T01:52:57.281Z,0.21
2023-02-20T01:54:37.038Z,0.21
2023-02-20T01:56:16.801Z,0.19
2023-02-20T01:57:56.563Z,0.17
2023-02-20T01:59:36.352Z,0.17
2023-02-20T02:01:16.110Z,0.18
2023-02-20T02:02:55.868Z,0.19
2023-02-20T02:04:35.657Z,0.18
2023-02-20T02:06:15.434Z,0.17
2023-02-20T02:07:55.193Z,0.19
2023-02-20T02:09:34.932Z,0.17
2023-02-20T02:11:14.706Z,0.18
2023-02-20T02:12:54.480Z,0.18
2023-02-20T02:14:34.244Z,0.17
2023-02-20T02:16:14.012Z,0.17
2023-02-20T02:17:53.781Z,0.21
2023-02-20T02:19:33.626Z,0.17
2023-02-20T02:21:13.350Z,0.18
2023-02-20T02:22:53.064Z,0.21
2023-02-20T02:24:32.844Z,0.17
2023-02-20T02:26:12.614Z,0.2
2023-02-20T02:27:52.385Z,0.18
2023-02-20T02:29:32.219Z,0.21
2023-02-20T02:31:11.905Z,0.22
2023-02-20T02:32:51.721Z,0.21
2023-02-20T02:34:31.449Z,0.19
2023-02-20T02:36:11.206Z,0.19
2023-02-20T02:37:50.975Z,0.24
2023-02-20T02:39:30.740Z,0.19
2023-02-20T02:41:10.508Z,0.24
2023-02-20T02:42:50.285Z,0.21
2023-02-20T02:44:30.082Z,0.24
2023-02-20T02:46:09.811Z,0.25
2023-02-20T02:47:49.570Z,0.22
2023-02-20T02:49:29.350Z,0.25
2023-02-20T02:51:09.121Z,0.24
2023-02-20T02:52:48.867Z,0.22
2023-02-20T02:54:28.649Z,0.2
2023-02-20T02:56:08.407Z,0.21
2023-02-20T02:57:48.178Z,0.2
2023-02-20T02:59:27.957Z,0.24
2023-02-20T03:01:07.716Z,0.23
2023-02-20T03:02:47.486Z,0.26
2023-02-20T03:04:27.254Z,0.25
2023-02-20T03:06:07.009Z,0.3
2023-02-20T03:07:46.834Z,0.26
2023-02-20T03:09:26.543Z,0.22
2023-02-20T03:11:06.317Z,0.23
2023-02-20T03:12:46.084Z,0.23
2023-02-20T03:14:25.923Z,0.24
2023-02-20T03:16:05.622Z,0.24
2023-02-20T03:17:45.384Z,0.24
2023-02-20T03:19:25.181Z,0.24
2023-02-20T03:21:04.921Z,0.26
2023-02-20T03:22:44.688Z,0.24
2023-02-20T03:24:24.465Z,0.26
2023-02-20T03:26:04.227Z,0.27
2023-02-20T03:27:43.993Z,0.24
2023-02-20T03:29:23.893Z,0.3
2023-02-20T03:31:03.583Z,0.25
2023-02-20T03:32:43.314Z,0.26
2023-02-20T03:34:23.062Z,0.24
2023-02-20T03:36:02.826Z,0.29
2023-02-20T03:37:42.602Z,0.26
2023-02-20T03:39:22.374Z,0.24
2023-02-20T03:41:02.141Z,0.3
2023-02-20T03:42:41.906Z,0.3
2023-02-20T03:44:21.720Z,0.25
2023-02-20T03:46:01.467Z,0.25
2023-02-20T03:47:41.213Z,0.25
2023-02-20T03:49:20.979Z,0.28
2023-02-20T03:51:00.742Z,0.26
2023-02-20T03:52:40.502Z,0.28
2023-02-20T03:54:20.273Z,0.26
2023-02-20T03:56:00.030Z,0.31
2023-02-20T03:57:39.846Z,0.28
2023-02-20T03:59:19.580Z,0.31
2023-02-20T04:00:59.344Z,0.28
2023-02-20T04:02:39.135Z,0.32
2023-02-20T04:04:18.908Z,0.29
2023-02-20T04:05:58.636Z,0.33
2023-02-20T04:07:38.407Z,0.29
2023-02-20T04:09:18.188Z,0.33
2023-02-20T04:10:57.968Z,0.29
2023-02-20T04:12:37.709Z,0.32
2023-02-20T04:14:17.483Z,0.29
2023-02-20T04:15:57.255Z,0.29
2023-02-20T04:17:37.021Z,0.31
2023-02-20T04:19:16.800Z,0.29
2023-02-20T04:20:56.579Z,0.28
2023-02-20T04:22:36.318Z,0.27
2023-02-20T04:24:16.084Z,0.3
2023-02-20T04:25:55.850Z,0.32
2023-02-20T04:27:35.615Z,0.32
2023-02-20T04:29:15.385Z,0.31
2023-02-20T04:30:55.140Z,0.3
2023-02-20T04:32:34.923Z,0.29
2023-02-20T04:34:14.726Z,0.32
2023-02-20T04:35:54.461Z,0.27
2023-02-20T04:37:34.213Z,0.26
2023-02-20T04:39:14.016Z,0.27
2023-02-20T04:40:53.755Z,0.27
2023-02-20T04:42:33.512Z,0.27
2023-02-20T04:44:13.283Z,0.3
2023-02-20T04:45:53.054Z,0.27
2023-02-20T04:47:32.815Z,0.31
2023-02-20T04:49:12.583Z,0.31
2023-02-20T04:50:52.349Z,0.3
2023-02-20T04:52:32.115Z,0.27
2023-02-20T04:54:11.886Z,0.32
2023-02-20T04:55:51.670Z,0.32
2023-02-20T04:57:31.462Z,0.32
2023-02-20T04:59:11.192Z,0.27
2023-02-20T05:00:50.956Z,0.29
2023-02-20T05:02:30.732Z,0.32
2023-02-20T05:04:10.546Z,0.3
2023-02-20T05:05:50.254Z,0.28
2023-02-20T05:07:30.039Z,0.26
2023-02-20T05:09:09.784Z,0.26
2023-02-20T05:10:49.555Z,0.25
2023-02-20T05:12:29.327Z,0.28
2023-02-20T05:14:09.102Z,0.26
2023-02-20T05:15:48.860Z,0.27
2023-02-20T05:17:28.627Z,0.31
2023-02-20T05:19:08.391Z,0.3
2023-02-20T05:20:48.164Z,0.34
2023-02-20T05:22:27.996Z,0.35
2023-02-20T05:24:07.694Z,0.39
2023-02-20T05:25:47.464Z,0.43
2023-02-20T05:27:27.380Z,0.5
2023-02-20T05:29:07.002Z,0.52
2023-02-20T05:30:46.781Z,0.63
2023-02-20T05:32:26.556Z,0.68
2023-02-20T05:34:06.295Z,0.82
2023-02-20T05:35:46.061Z,0.94
2023-02-20T05:37:25.833Z,1.19
2023-02-20T05:39:05.600Z,1.5
2023-02-20T05:40:45.377Z,1.95
2023-02-20T05:42:25.147Z,2.59
2023-02-20T05:44:04.902Z,3.21
2023-02-20T05:45:44.675Z,4.1
2023-02-20T05:47:24.436Z,5.24
2023-02-20T05:49:04.216Z,6.5
2023-02-20T05:50:43.969Z,7.44
2023-02-20T05:52:23.727Z,8.41
2023-02-20T05:54:03.510Z,10.39
2023-02-20T05:55:43.285Z,13.81
2023-02-20T05:57:23.042Z,18.2
2023-02-20T05:59:02.831Z,23.64
2023-02-20T06:00:42.589Z,29.72
2023-02-20T06:02:22.352Z,29.92
2023-02-20T06:04:02.144Z,27.32
2023-02-20T06:05:41.878Z,26.87
2023-02-20T06:07:21.646Z,26.88
2023-02-20T06:09:01.418Z,26.88
2023-02-20T06:10:41.188Z,26.88
2023-02-20T06:12:20.938Z,26.89
2023-02-20T06:14:00.715Z,26.88
2023-02-20T06:15:40.476Z,26.88
2023-02-20T06:17:20.254Z,26.89
2023-02-20T06:19:00.031Z,26.9
2023-02-20T06:20:39.786Z,26.91
2023-02-20T06:22:19.544Z,26.92
2023-02-20T06:23:59.363Z,26.9
2023-02-20T06:25:39.085Z,26.94
2023-02-20T06:27:18.864Z,26.95
2023-02-20T06:28:58.613Z,26.95
2023-02-20T06:30:38.393Z,26.96
2023-02-20T06:32:18.156Z,26.97
2023-02-20T06:33:57.920Z,26.97
2023-02-20T06:35:37.698Z,26.97
2023-02-20T06:37:17.456Z,26.99
2023-02-20T06:38:57.225Z,27
2023-02-20T06:40:36.996Z,27
2023-02-20T06:42:16.767Z,27.01
2023-02-20T06:43:56.526Z,27.01
2023-02-20T06:45:36.333Z,27.02
2023-02-20T06:47:16.060Z,26.99
2023-02-20T06:48:55.849Z,26.96
2023-02-20T06:50:35.613Z,27
2023-02-20T06:52:15.378Z,27
2023-02-20T06:53:55.144Z,27.05
2023-02-20T06:55:34.914Z,27.09
2023-02-20T06:57:14.698Z,27.16
2023-02-20T06:58:54.483Z,27.2
2023-02-20T07:00:34.265Z,27.25
2023-02-20T07:02:13.990Z,60.2
2023-02-20T07:03:53.754Z,32.49
2023-02-20T07:05:33.537Z,27.37
2023-02-20T07:07:13.303Z,27.38
2023-02-20T07:08:53.107Z,27.43
2023-02-20T07:10:32.823Z,27.42
2023-02-20T07:12:12.640Z,27.51
2023-02-20T07:13:52.364Z,27.55
2023-02-20T07:15:32.137Z,27.63
2023-02-20T07:17:11.968Z,27.67
2023-02-20T07:18:51.685Z,27.72
2023-02-20T07:20:31.443Z,27.78
2023-02-20T07:22:11.225Z,27.83
2023-02-20T07:23:51.009Z,27.87
2023-02-20T07:25:30.762Z,27.92
2023-02-20T07:27:10.679Z,27.98
2023-02-20T07:28:50.302Z,28.02
2023-02-20T07:30:30.066Z,28.04
2023-02-20T07:32:09.842Z,28.1
2023-02-20T07:33:49.610Z,28.12
2023-02-20T07:35:29.380Z,28.17
2023-02-20T07:37:09.153Z,28.22
2023-02-20T07:38:48.937Z,28.29
2023-02-20T07:40:28.772Z,28.26
2023-02-20T07:42:08.460Z,28.44
2023-02-20T07:43:48.238Z,28.49
2023-02-20T07:45:28.010Z,28.51
2023-02-20T07:47:07.772Z,28.52
2023-02-20T07:48:47.534Z,28.55
2023-02-20T07:50:27.338Z,28.59
2023-02-20T07:52:07.114Z,28.62
2023-02-20T07:53:46.885Z,28.67
2023-02-20T07:55:26.635Z,28.69
2023-02-20T07:57:06.402Z,28.73
2023-02-20T07:58:46.162Z,28.76
2023-02-20T08:00:25.932Z,28.79
2023-02-20T08:02:05.711Z,28.81
2023-02-20T08:03:45.505Z,46.45
2023-02-20T08:05:25.263Z,28.93
2023-02-20T08:07:05.015Z,28.93
2023-02-20T08:08:44.771Z,28.99
2023-02-20T08:10:24.686Z,29.01
2023-02-20T08:12:04.321Z,29.03
2023-02-20T08:13:44.100Z,29.06
2023-02-20T08:15:23.899Z,29.08
2023-02-20T08:17:03.635Z,29.13
2023-02-20T08:18:43.483Z,29.17
2023-02-20T08:20:23.309Z,29.19
2023-02-20T08:22:02.966Z,29.22
2023-02-20T08:23:42.936Z,29.24
2023-02-20T08:25:22.465Z,29.24
2023-02-20T08:27:02.404Z,29.25
2023-02-20T08:28:42.015Z,29.27
2023-02-20T08:30:21.787Z,29.32
2023-02-20T08:32:01.564Z,29.33
2023-02-20T08:33:41.334Z,29.4
2023-02-20T08:35:21.190Z,29.42
2023-02-20T08:37:00.869Z,29.45
2023-02-20T08:38:40.656Z,29.46
2023-02-20T08:40:20.414Z,29.47
2023-02-20T08:42:00.179Z,29.48
2023-02-20T08:43:40.179Z,29.51
2023-02-20T08:45:19.762Z,29.54
2023-02-20T08:46:59.504Z,29.58
2023-02-20T08:48:39.267Z,29.63
2023-02-20T08:50:19.039Z,29.66
2023-02-20T08:51:58.798Z,29.71
2023-02-20T08:53:38.586Z,29.73
2023-02-20T08:55:18.354Z,29.78
2023-02-20T08:56:58.115Z,29.83
2023-02-20T08:58:37.872Z,29.86
2023-02-20T09:00:17.725Z,30.01
2023-02-20T09:01:57.409Z,30.12
2023-02-20T09:03:37.187Z,78.44
2023-02-20T09:05:16.950Z,84.36
2023-02-20T09:06:56.729Z,84.69
2023-02-20T09:08:36.502Z,84.96
2023-02-20T09:10:16.267Z,85.18
2023-02-20T09:11:56.036Z,85.36
2023-02-20T09:13:35.816Z,85.43
2023-02-20T09:15:15.580Z,85.5
2023-02-20T09:16:55.342Z,85.58
2023-02-20T09:18:35.133Z,85.64
2023-02-20T09:20:14.899Z,85.67
2023-02-20T09:21:54.682Z,85.78
2023-02-20T09:23:34.452Z,86.06
2023-02-20T09:25:14.200Z,86.47
2023-02-20T09:26:53.955Z,86.63
2023-02-20T09:28:33.789Z,86.55
2023-02-20T09:30:13.678Z,86.46
2023-02-20T09:31:53.284Z,86.37
2023-02-20T09:33:33.054Z,86.44
2023-02-20T09:35:12.841Z,86.63
2023-02-20T09:36:52.659Z,86.74
2023-02-20T09:38:32.369Z,86.74
2023-02-20T09:40:12.173Z,86.71
2023-02-20T09:41:51.906Z,86.75
2023-02-20T09:43:31.670Z,86.72
2023-02-20T09:45:11.444Z,86.72
2023-02-20T09:46:51.209Z,86.81
2023-02-20T09:48:30.986Z,86.99
2023-02-20T09:50:10.768Z,86.92
2023-02-20T09:51:50.533Z,86.88
2023-02-20T09:53:30.310Z,86.78
2023-02-20T09:55:10.081Z,86.68
2023-02-20T09:56:49.860Z,86.43
2023-02-20T09:58:29.614Z,86.43
2023-02-20T10:00:09.376Z,86.88
2023-02-20T10:01:49.166Z,87.36
2023-02-20T10:03:29.005Z,87.44
2023-02-20T10:05:08.691Z,87.39
2023-02-20T10:06:48.468Z,87.07
2023-02-20T10:08:28.225Z,87.17
2023-02-20T10:10:08.128Z,87.17
2023-02-20T10:11:47.770Z,87.6
2023-02-20T10:13:27.543Z,87.66
2023-02-20T10:15:07.317Z,87.39
2023-02-20T10:16:47.071Z,86.83
2023-02-20T10:18:26.867Z,86.83
2023-02-20T10:20:06.617Z,86.91
2023-02-20T10:21:46.390Z,86.01
2023-02-20T10:23:26.156Z,85.8
2023-02-20T10:25:05.956Z,84.84
2023-02-20T10:26:45.708Z,85.14
2023-02-20T10:28:25.491Z,85.57
2023-02-20T10:30:05.253Z,86.86
2023-02-20T10:31:45.002Z,87.31
2023-02-20T10:33:24.785Z,86.13
2023-02-20T10:35:04.555Z,86.13
2023-02-20T10:36:44.364Z,86.46
2023-02-20T10:38:24.095Z,86.05
2023-02-20T10:40:03.870Z,85.91
2023-02-20T10:41:43.652Z,86.67
2023-02-20T10:43:23.452Z,86.34
2023-02-20T10:45:03.189Z,86.15
2023-02-20T10:46:42.964Z,86.4
2023-02-20T10:48:22.733Z,86.74
2023-02-20T10:50:02.582Z,85.77
2023-02-20T10:51:42.268Z,85.77
2023-02-20T10:53:22.038Z,86
2023-02-20T10:55:01.804Z,85.53
2023-02-20T10:56:41.590Z,84.58
2023-02-20T10:58:21.357Z,85.51
2023-02-20T11:00:01.111Z,86.19
2023-02-20T11:01:40.880Z,86.35
2023-02-20T11:03:20.652Z,85.42
2023-02-20T11:05:00.596Z,84.85
2023-02-20T11:06:40.205Z,84.87
2023-02-20T11:08:19.971Z,84.45
2023-02-20T11:09:59.734Z,84.62
2023-02-20T11:11:39.508Z,85.37
2023-02-20T11:13:19.273Z,84.78
2023-02-20T11:14:59.112Z,84.18
2023-02-20T11:16:38.883Z,83.89
2023-02-20T11:18:18.622Z,83.57
2023-02-20T11:19:58.552Z,82.73
2023-02-20T11:21:38.163Z,82.73
2023-02-20T11:23:17.884Z,81.87
2023-02-20T11:24:57.667Z,82.1
2023-02-20T11:26:37.430Z,82.05
2023-02-20T11:28:17.210Z,82.76
2023-02-20T11:29:56.984Z,83.54
2023-02-20T11:31:36.742Z,83.9
2023-02-20T11:33:16.519Z,83.51
2023-02-20T11:34:56.291Z,83.48
2023-02-20T11:36:36.047Z,82.24
2023-02-20T11:38:15.817Z,82.77
2023-02-20T11:39:55.608Z,83.82
2023-02-20T11:41:35.368Z,84.52
2023-02-20T11:43:15.141Z,83.49
2023-02-20T11:44:54.911Z,81.87
2023-02-20T11:46:34.673Z,81.5
2023-02-20T11:48:14.455Z,83.21
2023-02-20T11:49:54.236Z,83.57
2023-02-20T11:51:34.007Z,83.89
2023-02-20T11:53:13.775Z,81.99
2023-02-20T11:54:53.529Z,81.61
2023-02-20T11:56:33.297Z,83.31
2023-02-20T11:58:13.065Z,83.19
2023-02-20T11:59:52.858Z,83.55
2023-02-20T12:01:32.621Z,82.95
2023-02-20T12:03:12.418Z,81.33
2023-02-20T12:04:52.154Z,84.98
2023-02-20T12:06:31.913Z,84.21
2023-02-20T12:08:11.674Z,82.77
2023-02-20T12:09:51.457Z,83.3
2023-02-20T12:11:31.228Z,83.21
2023-02-20T12:13:10.983Z,83.55
2023-02-20T12:14:50.872Z,83.25
2023-02-20T12:16:30.532Z,84.11
2023-02-20T12:18:10.306Z,83.46
2023-02-20T12:19:50.082Z,83.77
2023-02-20T12:21:29.846Z,83.58
2023-02-20T12:23:09.630Z,85.14
2023-02-20T12:24:49.381Z,84.35
2023-02-20T12:26:29.154Z,84.46
2023-02-20T12:28:08.929Z,84.46
2023-02-20T12:29:48.701Z,83.88
2023-02-20T12:31:28.469Z,84.51
2023-02-20T12:33:08.234Z,83.99
2023-02-20T12:34:47.994Z,83.28
2023-02-20T12:36:27.782Z,82.47
2023-02-20T12:38:07.603Z,80.33
2023-02-20T12:39:47.432Z,80.04
2023-02-20T12:41:27.090Z,80.54
2023-02-20T12:43:06.868Z,79.96
2023-02-20T12:44:46.639Z,81.68
2023-02-20T12:46:26.393Z,82.59
2023-02-20T12:48:06.163Z,82.35
2023-02-20T12:49:45.936Z,82.3
2023-02-20T12:51:25.747Z,85.02
2023-02-20T12:53:05.512Z,84.76
2023-02-20T12:54:45.252Z,82.71
2023-02-20T12:56:25.048Z,82.64
2023-02-20T12:58:04.802Z,82.67
2023-02-20T12:59:44.565Z,80.82
2023-02-20T13:01:24.334Z,79.89
2023-02-20T13:03:04.100Z,78.48
2023-02-20T13:04:43.875Z,78.03
2023-02-20T13:06:23.641Z,79.08
2023-02-20T13:08:03.426Z,78.61
2023-02-20T13:09:43.194Z,76.94
2023-02-20T13:11:22.965Z,79.44
2023-02-20T13:13:02.750Z,80.43
2023-02-20T13:14:42.504Z,78.83
2023-02-20T13:16:22.272Z,81.18
2023-02-20T13:18:02.040Z,81.28
2023-02-20T13:19:41.822Z,79.97
2023-02-20T13:21:21.619Z,78.94
2023-02-20T13:23:01.367Z,79.94
2023-02-20T13:24:41.117Z,77.37
2023-02-20T13:26:20.904Z,78.5
2023-02-20T13:28:00.666Z,78.5
2023-02-20T13:29:40.429Z,78.92
2023-02-20T13:31:20.196Z,79.3
2023-02-20T13:33:00.044Z,76.97
2023-02-20T13:34:39.749Z,80.71
2023-02-20T13:36:19.506Z,76.24
2023-02-20T13:37:59.280Z,78.08
2023-02-20T13:39:39.076Z,77.75
2023-02-20T13:41:18.837Z,71.24
2023-02-20T13:42:58.588Z,72.51
2023-02-20T13:44:38.394Z,70.47
2023-02-20T13:46:18.127Z,76.51
2023-02-20T13:47:57.896Z,72.3
2023-02-20T13:49:37.672Z,62.22
2023-02-20T13:51:17.431Z,50.88
2023-02-20T13:52:57.227Z,41.67
2023-02-20T13:54:37.001Z,36.41
2023-02-20T13:56:16.745Z,39.07
2023-02-20T13:57:56.558Z,37.96
2023-02-20T13:59:36.368Z,38.09
2023-02-20T14:01:16.071Z,39.72
2023-02-20T14:02:55.843Z,37.39
2023-02-20T14:04:35.601Z,35.59
2023-02-20T14:06:15.378Z,33.22
2023-02-20T14:07:55.142Z,31.09
2023-02-20T14:09:34.901Z,29.11
2023-02-20T14:11:14.682Z,28.8
2023-02-20T14:12:54.461Z,28.82
2023-02-20T14:14:34.239Z,28.82
2023-02-20T14:16:13.980Z,28.85
2023-02-20T14:17:53.755Z,28.91
2023-02-20T14:19:33.527Z,28.82
2023-02-20T14:21:13.431Z,28.78
2023-02-20T14:22:53.058Z,28.75
2023-02-20T14:24:32.845Z,28.73
2023-02-20T14:26:12.615Z,28.7
2023-02-20T14:27:52.519Z,28.7
2023-02-20T14:29:32.167Z,28.68
2023-02-20T14:31:11.962Z,28.64
2023-02-20T14:32:51.705Z,28.6
2023-02-20T14:34:31.484Z,28.59
2023-02-20T14:36:11.234Z,28.46
2023-02-20T14:37:51.009Z,28.56
2023-02-20T14:39:30.766Z,28.53
2023-02-20T14:41:10.541Z,28.49
2023-02-20T14:42:50.332Z,28.49
2023-02-20T14:44:30.094Z,28.43
2023-02-20T14:46:09.848Z,28.44
2023-02-20T14:47:49.616Z,28.39
2023-02-20T14:49:29.402Z,28.36
2023-02-20T14:51:09.152Z,28.36
2023-02-20T14:52:48.926Z,28.35
2023-02-20T14:54:28.708Z,28.36
2023-02-20T14:56:08.462Z,28.42
2023-02-20T14:57:48.240Z,28.42
2023-02-20T14:59:28.074Z,28.59
2023-02-20T15:01:07.789Z,28.64
2023-02-20T15:02:47.629Z,28.64
2023-02-20T15:04:27.347Z,28.7
2023-02-20T15:06:07.093Z,28.79
2023-02-20T15:07:46.870Z,28.77
2023-02-20T15:09:26.637Z,28.68
2023-02-20T15:11:06.470Z,28.7
2023-02-20T15:12:46.264Z,28.74
2023-02-20T15:14:26.014Z,28.74
2023-02-20T15:16:05.717Z,28.67
2023-02-20T15:17:45.486Z,28.66
2023-02-20T15:19:25.252Z,28.6
2023-02-20T15:21:05.024Z,28.54
2023-02-20T15:22:44.775Z,28.51
2023-02-20T15:24:24.560Z,28.47
2023-02-20T15:26:04.327Z,28.42
2023-02-20T15:27:44.100Z,28.26
2023-02-20T15:29:23.873Z,28.41
2023-02-20T15:31:03.639Z,28.37
2023-02-20T15:32:43.521Z,28.32
2023-02-20T15:34:23.273Z,28.29
2023-02-20T15:36:02.958Z,33.98
2023-02-20T15:37:42.711Z,28.26
2023-02-20T15:39:22.477Z,28.21
2023-02-20T15:41:02.254Z,28.19
2023-02-20T15:42:42.026Z,28.17
2023-02-20T15:44:21.789Z,28.17
2023-02-20T15:46:01.557Z,28.13
2023-02-20T15:47:41.324Z,28.1
2023-02-20T15:49:21.085Z,28.05
2023-02-20T15:51:00.863Z,28.04
2023-02-20T15:52:40.615Z,27.88
2023-02-20T15:54:20.391Z,28
2023-02-20T15:56:00.155Z,27.99
2023-02-20T15:57:39.998Z,27.96
2023-02-20T15:59:19.708Z,27.94
2023-02-20T16:00:59.465Z,27.92
2023-02-20T16:02:39.230Z,27.89
2023-02-20T16:04:18.984Z,27.86
2023-02-20T16:05:58.778Z,27.86
2023-02-20T16:07:38.521Z,27.83
2023-02-20T16:09:18.301Z,27.82
2023-02-20T16:10:58.073Z,27.79
2023-02-20T16:12:37.850Z,27.76
2023-02-20T16:14:17.768Z,27.75
2023-02-20T16:15:57.372Z,27.71
2023-02-20T16:17:37.269Z,27.55
2023-02-20T16:19:16.900Z,27.67
2023-02-20T16:20:56.658Z,27.65
2023-02-20T16:22:36.437Z,27.67
2023-02-20T16:24:16.209Z,27.63
2023-02-20T16:25:55.981Z,27.6
2023-02-20T16:27:35.744Z,27.58
2023-02-20T16:29:15.517Z,27.58
2023-02-20T16:30:55.274Z,27.58
2023-02-20T16:32:35.040Z,27.57
2023-02-20T16:34:14.807Z,27.55
2023-02-20T16:35:54.575Z,31.05
2023-02-20T16:37:34.338Z,27.51
2023-02-20T16:39:14.108Z,27.51
2023-02-20T16:40:53.876Z,27.48
2023-02-20T16:42:33.649Z,27.42
2023-02-20T16:44:13.413Z,27.46
2023-02-20T16:45:53.170Z,27.39
2023-02-20T16:47:32.964Z,27.26
2023-02-20T16:49:12.716Z,17.96
2023-02-20T16:50:52.482Z,12.69
2023-02-20T16:52:32.235Z,9.34
2023-02-20T16:54:12.024Z,7.06
2023-02-20T16:55:51.830Z,4.98
2023-02-20T16:57:31.696Z,3.98
2023-02-20T16:59:11.380Z,3.53
2023-02-20T17:00:51.096Z,2.51
2023-02-20T17:02:30.843Z,2.01
2023-02-20T17:04:10.624Z,1.63
2023-02-20T17:05:50.383Z,1.34
2023-02-20T17:07:30.142Z,1.16
2023-02-20T17:09:09.920Z,0.99
2023-02-20T17:12:29.461Z,0.83
2023-02-20T17:14:09.239Z,0.72
2023-02-20T17:15:48.994Z,0.68
2023-02-20T17:17:28.778Z,0.62
2023-02-20T17:19:08.524Z,0.57
2023-02-20T17:20:48.300Z,0.54
2023-02-20T17:22:28.081Z,0.49
2023-02-20T17:24:07.838Z,0.48
2023-02-20T17:25:47.604Z,0.48
2023-02-20T17:27:27.368Z,0.45
2023-02-20T17:29:07.135Z,0.44
2023-02-20T17:30:46.907Z,0.45
2023-02-20T17:32:26.673Z,0.44
2023-02-20T17:34:06.444Z,0.44
2023-02-20T17:35:46.207Z,0.44
2023-02-20T17:37:25.959Z,0.45
2023-02-20T17:39:05.736Z,0.45
2023-02-20T17:40:45.507Z,0.41
2023-02-20T17:42:25.268Z,0.43
2023-02-20T17:44:05.041Z,0.37
2023-02-20T17:45:44.806Z,0.4
2023-02-20T17:47:24.569Z,0.35
2023-02-20T17:49:04.360Z,0.39
2023-02-20T17:50:44.132Z,0.37
2023-02-20T17:52:23.895Z,0.37
2023-02-20T17:54:03.647Z,0.37
2023-02-20T17:55:43.413Z,0.39
2023-02-20T17:57:23.180Z,0.35
2023-02-20T17:59:02.982Z,0.4
2023-02-20T18:00:42.713Z,0.36
2023-02-20T18:02:22.476Z,0.39
2023-02-20T18:04:02.236Z,0.41
2023-02-20T18:05:42.006Z,0.37
2023-02-20T18:07:21.785Z,0.39
2023-02-20T18:09:01.542Z,0.39
2023-02-20T18:10:41.315Z,0.36
2023-02-20T18:12:21.101Z,0.35
2023-02-20T18:14:00.863Z,0.39
2023-02-20T18:15:40.622Z,0.39
2023-02-20T18:17:20.387Z,0.37
2023-02-20T18:19:00.241Z,0.35
2023-02-20T18:20:39.915Z,0.35
2023-02-20T18:22:19.674Z,0.37
2023-02-20T18:23:59.444Z,0.36
2023-02-20T18:25:39.203Z,0.38
2023-02-20T18:27:18.996Z,0.36
2023-02-20T18:28:58.739Z,0.35
2023-02-20T18:30:38.512Z,0.37
2023-02-20T18:32:18.302Z,0.37
2023-02-20T18:33:58.053Z,0.33
2023-02-20T18:35:37.828Z,0.35
2023-02-20T18:37:17.590Z,0.32
2023-02-20T18:38:57.362Z,0.33
2023-02-20T18:40:37.131Z,0.32
2023-02-20T18:42:16.916Z,0.32
2023-02-20T18:43:56.663Z,0.3
2023-02-20T18:45:36.443Z,0.3
2023-02-20T18:47:16.229Z,0.32
2023-02-20T18:48:55.956Z,0.29
2023-02-20T18:50:35.821Z,0.34
2023-02-20T18:52:15.500Z,0.33
2023-02-20T18:53:55.252Z,0.3
2023-02-20T18:55:35.035Z,0.34
2023-02-20T18:57:14.802Z,0.33
2023-02-20T18:58:54.571Z,0.36
2023-02-20T19:00:34.349Z,0.35
2023-02-20T19:02:14.099Z,0.32
2023-02-20T19:05:33.632Z,0.29
2023-02-20T19:07:13.405Z,0.32
2023-02-20T19:08:53.157Z,0.3
2023-02-20T19:10:32.951Z,0.28
2023-02-20T19:12:12.707Z,0.29
2023-02-20T19:13:52.471Z,0.3
2023-02-20T19:15:32.250Z,0.3
2023-02-20T19:17:12.186Z,0.3
2023-02-20T19:20:31.530Z,0.25
2023-02-20T19:22:11.314Z,0.24
2023-02-20T19:23:51.069Z,0.28
2023-02-20T19:25:30.839Z,0.26
2023-02-20T19:27:10.691Z,0.24
2023-02-20T19:28:50.368Z,0.24
2023-02-20T19:30:30.134Z,0.28
2023-02-20T19:32:09.898Z,0.3
2023-02-20T19:33:49.820Z,0.26
2023-02-20T19:35:29.471Z,0.32
2023-02-20T19:37:09.221Z,0.3
2023-02-20T19:38:49.026Z,0.29
2023-02-20T19:40:28.755Z,0.27
2023-02-20T19:42:08.515Z,0.27
2023-02-20T19:43:48.296Z,0.29
2023-02-20T19:45:28.061Z,0.28
2023-02-20T19:47:07.825Z,0.26
2023-02-20T19:48:47.599Z,0.29
2023-02-20T19:50:27.368Z,0.32
2023-02-20T19:52:07.125Z,0.3
2023-02-20T19:53:46.894Z,0.29
2023-02-20T19:55:26.657Z,0.3
2023-02-20T19:57:06.433Z,0.27
2023-02-20T19:58:46.192Z,0.26
2023-02-20T20:00:25.974Z,0.28
2023-02-20T20:02:05.719Z,0.3
2023-02-20T20:03:45.513Z,0.31
2023-02-20T20:05:25.269Z,0.33
2023-02-20T20:07:05.077Z,0.33
2023-02-20T20:08:44.803Z,0.3
2023-02-20T20:10:24.567Z,0.32
2023-02-20T20:12:04.324Z,0.29
2023-02-20T20:13:44.089Z,0.29
2023-02-20T20:15:23.878Z,0.3
2023-02-20T20:17:03.635Z,0.28
2023-02-20T20:18:43.396Z,0.32
2023-02-20T20:20:23.174Z,0.31
2023-02-20T20:22:03.127Z,0.33
2023-02-20T20:23:42.778Z,0.31
2023-02-20T20:25:22.473Z,0.3
2023-02-20T20:27:02.240Z,0.27
2023-02-20T20:28:42.105Z,0.29
2023-02-20T20:30:21.775Z,0.27
2023-02-20T20:32:01.625Z,0.3
2023-02-20T20:33:41.301Z,0.34
2023-02-20T20:35:21.089Z,0.32
2023-02-20T20:37:00.901Z,0.33
2023-02-20T20:38:40.600Z,0.32
2023-02-20T20:40:20.379Z,0.32
2023-02-20T20:42:00.173Z,0.28
2023-02-20T20:43:39.922Z,0.32
2023-02-20T20:45:19.706Z,0.32
2023-02-20T20:46:59.443Z,0.32
2023-02-20T20:48:39.236Z,0.31
2023-02-20T20:50:18.981Z,0.3
2023-02-20T20:51:58.738Z,0.32
2023-02-20T20:53:38.508Z,0.3
2023-02-20T20:55:18.291Z,0.3
2023-02-20T20:56:58.070Z,0.31
2023-02-20T20:58:37.813Z,0.32
2023-02-20T21:00:17.621Z,0.32
2023-02-20T21:01:57.346Z,0.28
2023-02-20T21:03:37.109Z,0.31
2023-02-20T21:06:56.680Z,0.33
2023-02-20T21:08:36.465Z,0.3
2023-02-20T21:10:16.189Z,0.29
2023-02-20T21:11:55.948Z,0.3
2023-02-20T21:13:35.735Z,0.32
2023-02-20T21:15:15.491Z,0.31
2023-02-20T21:16:55.251Z,0.31
2023-02-20T21:18:35.033Z,0.32
2023-02-20T21:20:14.879Z,0.29
2023-02-20T21:21:54.546Z,0.28
2023-02-20T21:23:34.318Z,0.32
2023-02-20T21:25:14.092Z,0.3
2023-02-20T21:26:53.856Z,0.32
2023-02-20T21:28:33.632Z,0.3
2023-02-20T21:30:13.438Z,0.28
2023-02-20T21:31:53.160Z,0.32
2023-02-20T21:33:32.924Z,0.32
2023-02-20T21:35:12.686Z,0.31
2023-02-20T21:36:52.451Z,0.32
2023-02-20T21:38:32.260Z,0.32
2023-02-20T21:40:12.004Z,0.31
2023-02-20T21:41:51.807Z,0.32
2023-02-20T21:43:31.541Z,0.3
2023-02-20T21:45:11.293Z,0.3
2023-02-20T21:46:51.067Z,0.33
2023-02-20T21:48:30.884Z,0.29
2023-02-20T21:50:10.609Z,0.33
2023-02-20T21:51:50.364Z,0.3
2023-02-20T21:53:30.122Z,0.3
2023-02-20T21:55:09.894Z,0.3
2023-02-20T21:56:49.682Z,0.3
2023-02-20T21:58:29.459Z,0.29